الصفحة الرئيسية
METAR-TAF:

METAR-TAF

مطار :

Tarija, بوليفيا

دائرة عرض: 21-33S, خط طول: 064-42W, ارتفاع: 1854 متر

مراقبة الطقس الحالي

تاريخ ووقت الإصدار 1ساعة و 0 دقيقة قبل الساعة 11:00UTC
رياح هادئة
درجة الحرارة 8°درجة مئوية
الرطوبة 81%
ضغط 1013 hPa
الرؤية 10 كم أو أكثر

METAR: SLTJ 141100Z 00000KT 9999 NSC 08/05 Q1013

زمن: 08:00 (12:00 UTC)

توقعات

تاريخ ووقت الإصدار 2ساعات و 0 دقيقة قبل الساعة 10:00UTC
التوقعات صالحة من14 الساعة 12 UTC إلى 15 الساعة 12 UTC
ريح عقدة من الشمال
الرؤية 10 كم أو أكثر
مؤقت
من 14 الساعة 16 UTC إلى 14 الساعة 18 UTC
ريح 10 عقدة من الجنوب/الجنوب الشرقي

TAF: SLTJ 141000Z 1412/1512 00000KT 9999 NSC TX33/1419Z TN06/1510Z TEMPO 1416/1418 15010KT

أرصاد الطقس والتوقعات من أكثر من 4000 مطار (تقارير الطقس للمطار METAR والتنبؤ بالطقس بالمطارTAF).

المحطات المتاحة هي النقط الصفراء والحمراء على الخريطة.

حرك المؤشر فوق النقطة لمعرفة اسم المحطة.

ثم انقر لمعرفة أرصاد وتوقعات الطقس.

لتغيير الخارطة: اضغط على الأزرار الخضراء مع رمز الصليب الأسود للتكبير. على الزر الأخضر مع شرطة للتصغير، أو على الأسهم الخضراء للخرائط المجاورة.


METAR-TAF: